Time;durP1;ratioP1;P1;durP2;ratioP2;P2;SDS_P1;SDS_P2;PMS_P1;PMS_P2;Temp;Humidity;BMP_temperature;BMP_pressure;BME280_temperature;BME280_humidity;BME280_pressure;Samples;Min_cycle;Max_cycle;Signal;HPM_P1;HPM_P2
2022/05/11 00:01:42;;;;;;;;;;;;;;;;;;5084013;28;19920;-64
2022/05/11 00:04:08;;;;;;;;;;;;;;;;;;5085340;28;19950;-63
2022/05/11 00:06:34;;;;;;;;;;;;;;;;;;5085442;28;19928;-63
2022/05/11 00:09:00;;;;;;;;;;;;;;;;;;5085346;28;19924;-64
2022/05/11 00:11:27;;;;;;;;;;;;;;;;;;5085290;28;19943;-65
2022/05/11 00:13:53;;;;;;;;;;;;;;;;;;5084016;28;19921;-64
2022/05/11 00:16:19;;;;;;;;;;;;;;;;;;5085125;28;19927;-64
2022/05/11 00:18:45;;;;;;;;;;;;;;;;;;5085156;28;19928;-64
2022/05/11 00:21:11;;;;;;;;;;;;;;;;;;5084153;28;19921;-64
2022/05/11 00:23:37;;;;;;;;;;;;;;;;;;5064651;28;19928;-63
2022/05/11 00:26:03;;;;;;;;;;;;;;;;;;5097630;28;19928;-64
2022/05/11 00:28:29;;;;;;;;;;;;;;;;;;5065065;28;20540;-64
2022/05/11 00:30:55;;;;;;;;;;;;;;;;;;5064803;28;19921;-64
2022/05/11 00:36:25;;;;;;;;;;;;;;;;;;5085218;28;19966;-64
2022/05/11 00:38:51;;;;;;;;;;;;;;;;;;5085167;28;20376;-64
2022/05/11 00:41:17;;;;;;;;;;;;;;;;;;5085025;28;19928;-64
2022/05/11 00:43:43;;;;;;;;;;;;;;;;;;5083792;28;19942;-64
2022/05/11 00:46:09;;;;;;;;;;;;;;;;;;5084960;28;19920;-64
2022/05/11 00:51:19;;;;;;;;;;;;;;;;;;5088757;28;20391;-64
2022/05/11 00:53:45;;;;;;;;;;;;;;;;;;5088891;28;19921;-64
2022/05/11 00:56:11;;;;;;;;;;;;;;;;;;5088834;28;19950;-64
2022/05/11 00:58:37;;;;;;;;;;;;;;;;;;5088789;28;19924;-64
2022/05/11 01:01:03;;;;;;;;;;;;;;;;;;5088755;28;19927;-64
2022/05/11 01:03:29;;;;;;;;;;;;;;;;;;5088634;28;19924;-64
2022/05/11 01:05:55;;;;;;;;;;;;;;;;;;5088853;28;19925;-64
2022/05/11 01:08:21;;;;;;;;;;;;;;;;;;5088784;28;20006;-64
2022/05/11 01:10:47;;;;;;;;;;;;;;;;;;5087293;28;19924;-64
2022/05/11 01:13:13;;;;;;;;;;;;;;;;;;5088710;28;19921;-64
2022/05/11 01:15:39;;;;;;;;;;;;;;;;;;5088417;28;19958;-64
2022/05/11 01:18:05;;;;;;;;;;;;;;;;;;5088511;28;19932;-64
2022/05/11 01:20:33;;;;;;;;;;;;;;;;;;5086996;28;19927;-64
2022/05/11 01:23:00;;;;;;;;;;;;;;;;;;5088428;28;19927;-63
2022/05/11 01:25:26;;;;;;;;;;;;;;;;;;5088335;28;20386;-64
2022/05/11 01:27:52;;;;;;;;;;;;;;;;;;5088540;28;19921;-64
2022/05/11 01:30:18;;;;;;;;;;;;;;;;;;5088238;28;19927;-64
2022/05/11 01:32:44;;;;;;;;;;;;;;;;;;5087980;28;19921;-64
2022/05/11 01:35:10;;;;;;;;;;;;;;;;;;5088251;28;19932;-64
2022/05/11 01:37:37;;;;;;;;;;;;;;;;;;5088143;28;19927;-64
2022/05/11 01:40:03;;;;;;;;;;;;;;;;;;5088179;28;19920;-64
2022/05/11 01:42:29;;;;;;;;;;;;;;;;;;5086779;28;19920;-64
2022/05/11 01:44:55;;;;;;;;;;;;;;;;;;5088069;28;19973;-64
2022/05/11 01:47:21;;;;;;;;;;;;;;;;;;5087945;28;20276;-63
2022/05/11 01:49:47;;;;;;;;;;;;;;;;;;5086508;28;19920;-64
2022/05/11 01:52:13;;;;;;;;;;;;;;;;;;5087051;28;19942;-64
2022/05/11 01:54:39;;;;;;;;;;;;;;;;;;5086687;28;19920;-64
2022/05/11 01:57:05;;;;;;;;;;;;;;;;;;5085519;28;19928;-64
2022/05/11 01:59:31;;;;;;;;;;;;;;;;;;5086146;28;19928;-64
2022/05/11 02:01:57;;;;;;;;;;;;;;;;;;5086387;28;19921;-63
2022/05/11 02:09:52;;;;;;;;;;;;;;;;;;5086350;28;19920;-64
2022/05/11 02:12:18;;;;;;;;;;;;;;;;;;5086444;28;19924;-64
2022/05/11 02:14:44;;;;;;;;;;;;;;;;;;5086342;28;19924;-64
2022/05/11 02:17:12;;;;;;;;;;;;;;;;;;5086195;28;19974;-64
2022/05/11 02:19:38;;;;;;;;;;;;;;;;;;5086388;28;19930;-64
2022/05/11 02:22:04;;;;;;;;;;;;;;;;;;5086472;28;19920;-64
2022/05/11 02:24:30;;;;;;;;;;;;;;;;;;5084919;28;19946;-64
2022/05/11 02:26:56;;;;;;;;;;;;;;;;;;5086207;28;19983;-63
2022/05/11 02:29:23;;;;;;;;;;;;;;;;;;5084740;28;19974;-63
2022/05/11 02:31:49;;;;;;;;;;;;;;;;;;5086079;28;19925;-64
2022/05/11 02:35:12;;;;;;;;;;;;;;;;;;5085811;28;19927;-64
2022/05/11 02:37:01;;;;;;;;;;;;;;;;;;5085907;28;19928;-63
2022/05/11 02:39:27;;;;;;;;;;;;;;;;;;5085910;28;19925;-64
2022/05/11 02:41:54;;;;;;;;;;;;;;;;;;5084644;28;19955;-63
2022/05/11 02:44:20;;;;;;;;;;;;;;;;;;5086099;28;19969;-64
2022/05/11 02:46:46;;;;;;;;;;;;;;;;;;5085751;28;20348;-65
2022/05/11 02:49:12;;;;;;;;;;;;;;;;;;5085987;28;19952;-64
2022/05/11 02:51:38;;;;;;;;;;;;;;;;;;5048127;28;1079002;-64
2022/05/11 02:54:04;;;;;;;;;;;;;;;;;;5086729;28;19920;-63
2022/05/11 02:56:30;;;;;;;;;;;;;;;;;;5086496;28;19927;-64
2022/05/11 02:58:56;;;;;;;;;;;;;;;;;;5085308;28;19920;-64
2022/05/11 03:01:22;;;;;;;;;;;;;;;;;;5086442;28;19926;-64
2022/05/11 03:03:48;;;;;;;;;;;;;;;;;;5086353;28;19920;-63
2022/05/11 03:06:14;;;;;;;;;;;;;;;;;;5086556;28;19920;-64
2022/05/11 03:08:40;;;;;;;;;;;;;;;;;;5086366;28;19931;-63
2022/05/11 03:11:06;;;;;;;;;;;;;;;;;;5085474;28;19921;-64
2022/05/11 03:13:32;;;;;;;;;;;;;;;;;;5085071;28;19920;-63
2022/05/11 03:15:58;;;;;;;;;;;;;;;;;;5086143;28;19927;-63
2022/05/11 03:18:24;;;;;;;;;;;;;;;;;;5086162;28;20395;-64
2022/05/11 03:20:50;;;;;;;;;;;;;;;;;;5086179;28;19924;-64
2022/05/11 03:23:16;;;;;;;;;;;;;;;;;;5086358;28;19920;-64
2022/05/11 03:25:42;;;;;;;;;;;;;;;;;;5085999;28;19984;-64
2022/05/11 03:28:08;;;;;;;;;;;;;;;;;;5086203;28;20003;-64
2022/05/11 03:30:34;;;;;;;;;;;;;;;;;;5085619;28;20031;-64
2022/05/11 03:35:45;;;;;;;;;;;;;;;;;;5086011;28;20340;-63
2022/05/11 03:38:11;;;;;;;;;;;;;;;;;;5085822;28;19984;-64
2022/05/11 03:40:38;;;;;;;;;;;;;;;;;;5085725;28;19924;-64
2022/05/11 03:43:04;;;;;;;;;;;;;;;;;;5084294;28;19920;-64
2022/05/11 03:45:30;;;;;;;;;;;;;;;;;;5085536;28;20297;-64
2022/05/11 03:47:56;;;;;;;;;;;;;;;;;;5085675;28;19921;-64
2022/05/11 03:50:22;;;;;;;;;;;;;;;;;;5085454;28;19922;-63
2022/05/11 03:52:48;;;;;;;;;;;;;;;;;;5085376;28;19927;-64
2022/05/11 03:55:14;;;;;;;;;;;;;;;;;;5085662;28;20015;-63
2022/05/11 03:57:40;;;;;;;;;;;;;;;;;;5085627;28;19990;-64
2022/05/11 04:00:06;;;;;;;;;;;;;;;;;;5085502;28;19927;-64
2022/05/11 04:02:32;;;;;;;;;;;;;;;;;;5085110;28;20623;-64
2022/05/11 04:04:58;;;;;;;;;;;;;;;;;;5085293;28;19927;-64
2022/05/11 04:07:24;;;;;;;;;;;;;;;;;;5084105;28;19924;-63
2022/05/11 04:09:50;;;;;;;;;;;;;;;;;;5085366;28;19924;-64
2022/05/11 04:12:16;;;;;;;;;;;;;;;;;;5085671;28;20027;-64
2022/05/11 04:14:43;;;;;;;;;;;;;;;;;;5085379;28;19921;-63
2022/05/11 04:17:08;;;;;;;;;;;;;;;;;;5085231;28;19928;-63
2022/05/11 04:19:34;;;;;;;;;;;;;;;;;;5085346;28;19920;-64
2022/05/11 04:22:00;;;;;;;;;;;;;;;;;;5085283;28;19927;-64
2022/05/11 04:24:26;;;;;;;;;;;;;;;;;;5085226;28;19927;-64
2022/05/11 04:26:52;;;;;;;;;;;;;;;;;;5085029;28;19941;-64
2022/05/11 04:29:18;;;;;;;;;;;;;;;;;;5085220;28;19987;-63
2022/05/11 04:31:44;;;;;;;;;;;;;;;;;;5084973;28;19920;-63
2022/05/11 04:34:13;;;;;;;;;;;;;;;;;;5084931;28;19920;-64
2022/05/11 04:36:39;;;;;;;;;;;;;;;;;;5084966;28;19920;-64
2022/05/11 04:39:05;;;;;;;;;;;;;;;;;;5085150;28;19927;-64
2022/05/11 04:41:31;;;;;;;;;;;;;;;;;;5085022;28;19920;-64
2022/05/11 04:43:57;;;;;;;;;;;;;;;;;;5083789;28;20395;-64
2022/05/11 04:46:23;;;;;;;;;;;;;;;;;;5084893;28;19920;-64
2022/05/11 04:48:49;;;;;;;;;;;;;;;;;;5084830;28;19947;-63
2022/05/11 04:51:15;;;;;;;;;;;;;;;;;;5084639;28;19996;-64
2022/05/11 04:53:41;;;;;;;;;;;;;;;;;;5083891;28;19981;-64
2022/05/11 04:56:07;;;;;;;;;;;;;;;;;;5083719;28;19920;-64
2022/05/11 04:58:33;;;;;;;;;;;;;;;;;;5084998;28;19931;-63
2022/05/11 05:00:59;;;;;;;;;;;;;;;;;;5084877;28;19920;-64
2022/05/11 05:03:25;;;;;;;;;;;;;;;;;;5084822;28;19942;-63
2022/05/11 05:05:51;;;;;;;;;;;;;;;;;;5084717;28;19921;-64
2022/05/11 05:08:17;;;;;;;;;;;;;;;;;;5083596;28;19921;-64
2022/05/11 05:10:43;;;;;;;;;;;;;;;;;;5084788;28;19974;-64
2022/05/11 05:13:10;;;;;;;;;;;;;;;;;;5084515;28;19920;-65
2022/05/11 05:15:36;;;;;;;;;;;;;;;;;;5084611;28;19959;-64
2022/05/11 05:18:02;;;;;;;;;;;;;;;;;;5084655;28;19953;-64
2022/05/11 05:20:28;;;;;;;;;;;;;;;;;;5084593;28;19935;-64
2022/05/11 05:22:54;;;;;;;;;;;;;;;;;;5084525;28;19924;-64
2022/05/11 05:25:20;;;;;;;;;;;;;;;;;;5083259;28;20375;-64
2022/05/11 05:27:46;;;;;;;;;;;;;;;;;;5084569;28;19927;-64
2022/05/11 05:32:58;;;;;;;;;;;;;;;;;;5084323;28;19927;-64
2022/05/11 05:35:24;;;;;;;;;;;;;;;;;;5086347;28;19982;-64
2022/05/11 05:37:50;;;;;;;;;;;;;;;;;;5088266;28;20445;-64
2022/05/11 05:40:16;;;;;;;;;;;;;;;;;;5087118;28;19920;-65
2022/05/11 05:42:43;;;;;;;;;;;;;;;;;;5087900;28;19920;-64
2022/05/11 05:45:09;;;;;;;;;;;;;;;;;;5086563;28;19925;-64
2022/05/11 05:47:36;;;;;;;;;;;;;;;;;;5086752;28;20451;-64
2022/05/11 05:50:02;;;;;;;;;;;;;;;;;;5087009;28;19921;-64
2022/05/11 05:52:28;;;;;;;;;;;;;;;;;;5086119;28;19928;-64
2022/05/11 05:54:54;;;;;;;;;;;;;;;;;;5086375;28;20021;-64
2022/05/11 05:57:20;;;;;;;;;;;;;;;;;;5087759;28;20002;-64
2022/05/11 05:59:46;;;;;;;;;;;;;;;;;;5087344;28;20424;-63
2022/05/11 06:02:16;;;;;;;;;;;;;;;;;;5083188;28;19921;-64
2022/05/11 06:04:42;;;;;;;;;;;;;;;;;;5067353;28;19939;-63
2022/05/11 06:07:08;;;;;;;;;;;;;;;;;;5078687;28;20366;-64
2022/05/11 06:09:34;;;;;;;;;;;;;;;;;;5085096;28;19931;-64
2022/05/11 06:12:00;;;;;;;;;;;;;;;;;;5087529;28;20077;-65
2022/05/11 06:14:26;;;;;;;;;;;;;;;;;;5086985;28;19938;-64
2022/05/11 06:16:53;;;;;;;;;;;;;;;;;;5087137;28;20314;-65
2022/05/11 06:19:19;;;;;;;;;;;;;;;;;;5084104;28;19946;-65
2022/05/11 06:21:47;;;;;;;;;;;;;;;;;;5084605;28;19960;-64
2022/05/11 06:24:13;;;;;;;;;;;;;;;;;;5086079;28;20428;-64
2022/05/11 06:26:41;;;;;;;;;;;;;;;;;;5085538;28;19946;-64
2022/05/11 06:29:07;;;;;;;;;;;;;;;;;;5086122;28;19920;-64
2022/05/11 06:31:33;;;;;;;;;;;;;;;;;;5080543;28;19928;-60
2022/05/11 06:33:59;;;;;;;;;;;;;;;;;;5085072;28;19920;-64
2022/05/11 06:36:25;;;;;;;;;;;;;;;;;;5086015;28;19920;-64
2022/05/11 06:38:51;;;;;;;;;;;;;;;;;;5087105;28;19920;-64
2022/05/11 06:41:17;;;;;;;;;;;;;;;;;;5087102;28;19928;-64
2022/05/11 06:43:44;;;;;;;;;;;;;;;;;;5086796;28;19921;-65
2022/05/11 06:46:10;;;;;;;;;;;;;;;;;;5085385;28;19920;-64
2022/05/11 06:48:36;;;;;;;;;;;;;;;;;;5086692;28;19931;-63
2022/05/11 06:51:02;;;;;;;;;;;;;;;;;;5086564;28;19928;-64
2022/05/11 06:59:16;;;;;;;;;;;;;;;;;;5086709;28;19920;-64
2022/05/11 07:01:44;;;;;;;;;;;;;;;;;;5086607;28;20295;-65
2022/05/11 07:04:10;;;;;;;;;;;;;;;;;;5086493;28;19932;-66
2022/05/11 07:06:36;;;;;;;;;;;;;;;;;;5085246;28;19973;-64
2022/05/11 07:09:02;;;;;;;;;;;;;;;;;;5086496;28;19925;-65
2022/05/11 07:14:13;;;;;;;;;;;;;;;;;;5086167;28;19920;-64
2022/05/11 07:16:39;;;;;;;;;;;;;;;;;;5086102;28;19924;-64
2022/05/11 07:19:06;;;;;;;;;;;;;;;;;;5086245;28;19927;-64
2022/05/11 07:21:32;;;;;;;;;;;;;;;;;;5086261;28;19920;-64
2022/05/11 07:23:58;;;;;;;;;;;;;;;;;;5086069;28;19935;-65
2022/05/11 07:26:24;;;;;;;;;;;;;;;;;;5086163;28;19935;-65
2022/05/11 07:28:50;;;;;;;;;;;;;;;;;;5086226;28;19920;-64
2022/05/11 07:31:16;;;;;;;;;;;;;;;;;;5085935;28;19968;-64
2022/05/11 07:33:44;;;;;;;;;;;;;;;;;;5084438;28;19921;-65
2022/05/11 07:36:10;;;;;;;;;;;;;;;;;;5085971;28;19924;-64
2022/05/11 07:38:39;;;;;;;;;;;;;;;;;;5085893;28;19925;-64
2022/05/11 07:41:05;;;;;;;;;;;;;;;;;;5085956;28;19920;-64
2022/05/11 07:43:31;;;;;;;;;;;;;;;;;;5085631;28;20368;-64
2022/05/11 07:45:57;;;;;;;;;;;;;;;;;;5085641;28;19920;-64
2022/05/11 07:48:23;;;;;;;;;;;;;;;;;;5085706;28;19932;-64
2022/05/11 07:50:49;;;;;;;;;;;;;;;;;;5085714;28;19958;-65
2022/05/11 07:53:15;;;;;;;;;;;;;;;;;;5085601;28;19972;-66
2022/05/11 07:55:41;;;;;;;;;;;;;;;;;;5085537;28;20379;-64
2022/05/11 08:00:52;;;;;;;;;;;;;;;;;;5085400;28;20338;-65
2022/05/11 08:03:18;;;;;;;;;;;;;;;;;;5085367;28;19921;-64
2022/05/11 08:05:44;;;;;;;;;;;;;;;;;;5085345;28;19942;-64
2022/05/11 08:08:10;;;;;;;;;;;;;;;;;;5085486;28;19928;-65
2022/05/11 08:10:36;;;;;;;;;;;;;;;;;;5085270;28;20364;-64
2022/05/11 08:13:05;;;;;;;;;;;;;;;;;;5085422;28;19920;-65
2022/05/11 08:15:32;;;;;;;;;;;;;;;;;;5085372;28;19920;-65
2022/05/11 08:17:58;;;;;;;;;;;;;;;;;;5085291;28;20404;-65
2022/05/11 08:20:24;;;;;;;;;;;;;;;;;;5085301;28;19956;-65
2022/05/11 08:22:51;;;;;;;;;;;;;;;;;;5083715;28;19920;-65
2022/05/11 08:25:19;;;;;;;;;;;;;;;;;;5085263;28;19928;-65
2022/05/11 08:27:45;;;;;;;;;;;;;;;;;;5085276;28;19962;-65
2022/05/11 08:35:41;;;;;;;;;;;;;;;;;;5085315;28;19966;-65
2022/05/11 08:38:07;;;;;;;;;;;;;;;;;;5085087;28;19920;-65
2022/05/11 08:40:33;;;;;;;;;;;;;;;;;;5085071;28;20296;-65
2022/05/11 08:43:02;;;;;;;;;;;;;;;;;;5085005;28;19928;-64
2022/05/11 08:45:28;;;;;;;;;;;;;;;;;;5085052;28;19942;-64
2022/05/11 08:47:54;;;;;;;;;;;;;;;;;;5084849;28;19920;-64
2022/05/11 08:50:20;;;;;;;;;;;;;;;;;;5084846;28;19924;-65
2022/05/11 08:52:47;;;;;;;;;;;;;;;;;;5084830;28;19920;-65
2022/05/11 08:55:13;;;;;;;;;;;;;;;;;;5084894;28;20375;-65
2022/05/11 08:57:39;;;;;;;;;;;;;;;;;;5085028;28;19982;-65
2022/05/11 09:00:06;;;;;;;;;;;;;;;;;;5084826;28;19920;-65
2022/05/11 09:02:32;;;;;;;;;;;;;;;;;;5084743;28;19935;-65
2022/05/11 09:04:58;;;;;;;;;;;;;;;;;;5084666;28;19964;-65
2022/05/11 09:07:24;;;;;;;;;;;;;;;;;;5084582;28;20015;-65
2022/05/11 09:09:50;;;;;;;;;;;;;;;;;;5087338;28;19947;-65
2022/05/11 09:12:16;;;;;;;;;;;;;;;;;;5088791;28;19947;-65
2022/05/11 09:14:42;;;;;;;;;;;;;;;;;;5088576;28;19921;-64
2022/05/11 09:17:09;;;;;;;;;;;;;;;;;;5088716;28;19920;-64
2022/05/11 09:19:35;;;;;;;;;;;;;;;;;;5088574;28;19932;-66
2022/05/11 09:22:01;;;;;;;;;;;;;;;;;;5088501;28;20040;-65
2022/05/11 09:24:27;;;;;;;;;;;;;;;;;;5088465;28;20358;-65
2022/05/11 09:26:53;;;;;;;;;;;;;;;;;;5088390;28;20322;-64
2022/05/11 09:29:19;;;;;;;;;;;;;;;;;;5088257;28;19960;-65
2022/05/11 09:31:45;;;;;;;;;;;;;;;;;;5088200;28;19991;-65
2022/05/11 09:34:12;;;;;;;;;;;;;;;;;;5088249;28;19973;-65
2022/05/11 09:36:38;;;;;;;;;;;;;;;;;;5088248;28;19962;-66
2022/05/11 09:39:05;;;;;;;;;;;;;;;;;;5086940;28;20010;-66
2022/05/11 09:41:33;;;;;;;;;;;;;;;;;;5088106;28;19920;-65
2022/05/11 09:44:00;;;;;;;;;;;;;;;;;;5088342;28;19947;-65
2022/05/11 09:46:26;;;;;;;;;;;;;;;;;;5087864;28;19924;-64
2022/05/11 09:48:52;;;;;;;;;;;;;;;;;;5088054;28;19920;-65
2022/05/11 09:51:19;;;;;;;;;;;;;;;;;;5087770;28;19929;-65
2022/05/11 09:53:45;;;;;;;;;;;;;;;;;;5087962;28;19924;-65
2022/05/11 09:56:11;;;;;;;;;;;;;;;;;;5087943;28;19983;-64
2022/05/11 09:58:39;;;;;;;;;;;;;;;;;;5087791;28;19924;-66
2022/05/11 10:01:05;;;;;;;;;;;;;;;;;;5087885;28;19967;-65
2022/05/11 10:03:31;;;;;;;;;;;;;;;;;;5087670;28;19927;-64
2022/05/11 10:05:57;;;;;;;;;;;;;;;;;;5087917;28;19928;-65
2022/05/11 10:08:23;;;;;;;;;;;;;;;;;;5087578;28;19946;-65
2022/05/11 10:10:49;;;;;;;;;;;;;;;;;;5087475;28;19973;-65
2022/05/11 10:13:15;;;;;;;;;;;;;;;;;;5087543;28;19956;-65
2022/05/11 10:23:54;;;;;;;;;;;;;;;;;;5086027;28;20067;-65
2022/05/11 10:26:21;;;;;;;;;;;;;;;;;;5087506;28;19928;-65
2022/05/11 10:28:47;;;;;;;;;;;;;;;;;;5087145;28;20291;-65
2022/05/11 10:31:13;;;;;;;;;;;;;;;;;;5086914;28;19922;-65
2022/05/11 10:33:39;;;;;;;;;;;;;;;;;;5086896;28;19920;-65
2022/05/11 10:36:05;;;;;;;;;;;;;;;;;;5085844;28;19927;-65
2022/05/11 10:38:31;;;;;;;;;;;;;;;;;;5087119;28;19927;-65
2022/05/11 10:40:57;;;;;;;;;;;;;;;;;;5087118;28;19928;-66
2022/05/11 10:43:23;;;;;;;;;;;;;;;;;;5087026;28;19920;-65
2022/05/11 10:45:49;;;;;;;;;;;;;;;;;;5087049;28;19988;-65
2022/05/11 10:48:15;;;;;;;;;;;;;;;;;;5086662;28;19976;-65
2022/05/11 10:50:41;;;;;;;;;;;;;;;;;;5086724;28;20011;-65
2022/05/11 10:53:07;;;;;;;;;;;;;;;;;;5086420;28;20009;-65
2022/05/11 10:55:33;;;;;;;;;;;;;;;;;;5086607;28;20315;-65
2022/05/11 10:57:59;;;;;;;;;;;;;;;;;;5086810;28;19920;-64
2022/05/11 11:00:26;;;;;;;;;;;;;;;;;;5086777;28;19955;-64
2022/05/11 11:02:52;;;;;;;;;;;;;;;;;;5084963;28;19942;-64
2022/05/11 11:05:18;;;;;;;;;;;;;;;;;;5086588;28;19920;-65
2022/05/11 11:07:44;;;;;;;;;;;;;;;;;;5086336;28;19920;-64
2022/05/11 11:10:10;;;;;;;;;;;;;;;;;;5086500;28;19946;-66
2022/05/11 11:12:36;;;;;;;;;;;;;;;;;;5086409;28;19946;-64
2022/05/11 11:15:02;;;;;;;;;;;;;;;;;;5086257;28;19929;-64
2022/05/11 11:17:28;;;;;;;;;;;;;;;;;;5086388;28;19920;-66
2022/05/11 11:19:54;;;;;;;;;;;;;;;;;;5086414;28;19942;-65
2022/05/11 11:22:20;;;;;;;;;;;;;;;;;;5086018;28;19928;-64
2022/05/11 11:24:46;;;;;;;;;;;;;;;;;;5086180;28;19921;-64
2022/05/11 11:27:12;;;;;;;;;;;;;;;;;;5086069;28;20394;-65
2022/05/11 11:29:38;;;;;;;;;;;;;;;;;;5086049;28;19928;-66
2022/05/11 11:32:04;;;;;;;;;;;;;;;;;;5085152;28;20006;-64
2022/05/11 11:34:31;;;;;;;;;;;;;;;;;;5085721;28;19924;-65
2022/05/11 11:36:57;;;;;;;;;;;;;;;;;;5085873;28;19929;-65
2022/05/11 11:39:23;;;;;;;;;;;;;;;;;;5086043;28;19920;-64
2022/05/11 11:41:49;;;;;;;;;;;;;;;;;;5085826;28;19975;-64
2022/05/11 11:44:15;;;;;;;;;;;;;;;;;;5085905;28;19932;-65
2022/05/11 11:46:41;;;;;;;;;;;;;;;;;;5085574;28;19920;-64
2022/05/11 11:49:07;;;;;;;;;;;;;;;;;;5085724;28;19921;-65
2022/05/11 11:51:33;;;;;;;;;;;;;;;;;;5085130;28;20391;-64
2022/05/11 11:53:59;;;;;;;;;;;;;;;;;;5085602;28;19924;-66
2022/05/11 11:56:25;;;;;;;;;;;;;;;;;;5085723;28;19921;-64
2022/05/11 11:58:51;;;;;;;;;;;;;;;;;;5085462;28;19974;-65
2022/05/11 12:01:19;;;;;;;;;;;;;;;;;;5085620;28;19920;-65
2022/05/11 12:03:45;;;;;;;;;;;;;;;;;;5085469;28;19968;-64
2022/05/11 12:17:11;;;;;;;;;;;;;;;;;;5085231;28;19975;-65
2022/05/11 12:19:37;;;;;;;;;;;;;;;;;;5085161;28;19952;-66
2022/05/11 12:22:03;;;;;;;;;;;;;;;;;;5085278;28;19980;-65
2022/05/11 12:24:29;;;;;;;;;;;;;;;;;;5085222;28;19970;-66
2022/05/11 12:26:55;;;;;;;;;;;;;;;;;;5085154;28;19921;-65
2022/05/11 12:32:07;;;;;;;;;;;;;;;;;;5085026;28;19927;-65
2022/05/11 12:34:33;;;;;;;;;;;;;;;;;;5085189;28;19920;-65
2022/05/11 12:37:00;;;;;;;;;;;;;;;;;;5085165;28;20121;-65
2022/05/11 12:39:26;;;;;;;;;;;;;;;;;;5085142;28;19927;-65
2022/05/11 12:41:52;;;;;;;;;;;;;;;;;;5085039;28;19920;-65
2022/05/11 12:44:18;;;;;;;;;;;;;;;;;;5088639;28;19927;-64
2022/05/11 12:46:44;;;;;;;;;;;;;;;;;;5089072;28;19920;-64
2022/05/11 12:49:10;;;;;;;;;;;;;;;;;;5089180;28;19963;-65
2022/05/11 12:51:37;;;;;;;;;;;;;;;;;;5088971;28;19920;-64
2022/05/11 12:54:05;;;;;;;;;;;;;;;;;;5089035;28;19927;-64
2022/05/11 12:56:32;;;;;;;;;;;;;;;;;;5089099;28;19924;-64
2022/05/11 12:58:58;;;;;;;;;;;;;;;;;;5088998;28;19934;-64
2022/05/11 13:01:24;;;;;;;;;;;;;;;;;;5088757;28;19983;-65
2022/05/11 13:03:50;;;;;;;;;;;;;;;;;;5088530;28;19924;-64
2022/05/11 13:06:16;;;;;;;;;;;;;;;;;;5088840;28;19921;-64
2022/05/11 13:08:42;;;;;;;;;;;;;;;;;;5088704;28;19921;-65
2022/05/11 13:11:08;;;;;;;;;;;;;;;;;;5088653;28;20378;-65
2022/05/11 13:13:35;;;;;;;;;;;;;;;;;;5088850;28;19920;-65
2022/05/11 13:16:01;;;;;;;;;;;;;;;;;;5088697;28;19921;-64
2022/05/11 13:18:27;;;;;;;;;;;;;;;;;;5088439;28;20049;-65
2022/05/11 13:20:53;;;;;;;;;;;;;;;;;;5088426;28;19920;-65
2022/05/11 13:23:19;;;;;;;;;;;;;;;;;;5088533;28;20015;-65
2022/05/11 13:25:46;;;;;;;;;;;;;;;;;;5087033;28;19924;-65
2022/05/11 13:28:12;;;;;;;;;;;;;;;;;;5088516;28;20264;-65
2022/05/11 13:30:42;;;;;;;;;;;;;;;;;;5088326;28;19920;-66
2022/05/11 13:33:08;;;;;;;;;;;;;;;;;;5088028;28;19928;-65
2022/05/11 13:35:34;;;;;;;;;;;;;;;;;;5088423;28;19921;-65
2022/05/11 13:38:00;;;;;;;;;;;;;;;;;;5088126;28;19924;-65
2022/05/11 13:40:26;;;;;;;;;;;;;;;;;;5088059;28;19920;-65
2022/05/11 13:42:52;;;;;;;;;;;;;;;;;;5088331;28;19920;-68
2022/05/11 13:45:18;;;;;;;;;;;;;;;;;;5087960;28;20367;-65
2022/05/11 13:50:29;;;;;;;;;;;;;;;;;;5088028;28;19920;-65
2022/05/11 13:52:56;;;;;;;;;;;;;;;;;;5087762;28;19999;-65
2022/05/11 13:55:22;;;;;;;;;;;;;;;;;;5087554;28;19921;-65
2022/05/11 13:57:48;;;;;;;;;;;;;;;;;;5088106;28;19928;-65
2022/05/11 14:00:14;;;;;;;;;;;;;;;;;;5087867;28;19920;-65
2022/05/11 14:02:40;;;;;;;;;;;;;;;;;;5087736;28;19930;-65
2022/05/11 14:05:06;;;;;;;;;;;;;;;;;;5087643;28;19935;-66
2022/05/11 14:07:32;;;;;;;;;;;;;;;;;;5087558;28;19920;-65
2022/05/11 14:09:58;;;;;;;;;;;;;;;;;;5087521;28;19927;-65
2022/05/11 14:12:26;;;;;;;;;;;;;;;;;;5087680;28;19920;-65
2022/05/11 14:14:52;;;;;;;;;;;;;;;;;;5087586;28;19920;-65
2022/05/11 14:17:18;;;;;;;;;;;;;;;;;;5087519;28;19920;-65
2022/05/11 14:19:44;;;;;;;;;;;;;;;;;;5087485;28;19924;-65
2022/05/11 14:22:10;;;;;;;;;;;;;;;;;;5087327;28;19939;-65
2022/05/11 14:24:36;;;;;;;;;;;;;;;;;;5086179;28;20376;-65
2022/05/11 14:27:02;;;;;;;;;;;;;;;;;;5087325;28;19920;-65
2022/05/11 14:29:29;;;;;;;;;;;;;;;;;;5087215;28;20413;-65
2022/05/11 14:31:56;;;;;;;;;;;;;;;;;;5087020;28;19920;-65
2022/05/11 14:34:22;;;;;;;;;;;;;;;;;;5086915;28;19920;-65
2022/05/11 14:36:48;;;;;;;;;;;;;;;;;;5087052;28;19931;-66
2022/05/11 14:39:14;;;;;;;;;;;;;;;;;;5087354;28;19920;-65
2022/05/11 14:41:40;;;;;;;;;;;;;;;;;;5087252;28;19924;-65
2022/05/11 14:44:06;;;;;;;;;;;;;;;;;;5087264;28;19988;-66
2022/05/11 14:46:32;;;;;;;;;;;;;;;;;;5085612;28;19921;-66
2022/05/11 14:48:58;;;;;;;;;;;;;;;;;;5086959;28;19927;-65
2022/05/11 14:51:24;;;;;;;;;;;;;;;;;;5086657;28;19920;-65
2022/05/11 14:53:50;;;;;;;;;;;;;;;;;;5086645;28;19921;-65
2022/05/11 14:56:16;;;;;;;;;;;;;;;;;;5086819;28;19943;-65
2022/05/11 15:04:12;;;;;;;;;;;;;;;;;;5086597;28;19927;-65
2022/05/11 15:06:38;;;;;;;;;;;;;;;;;;5085685;28;19921;-65
2022/05/11 15:09:04;;;;;;;;;;;;;;;;;;5086627;28;19943;-65
2022/05/11 15:14:15;;;;;;;;;;;;;;;;;;5086336;28;19943;-65
2022/05/11 15:16:44;;;;;;;;;;;;;;;;;;5084869;28;19925;-66
2022/05/11 15:19:10;;;;;;;;;;;;;;;;;;5085122;28;19924;-66
2022/05/11 15:21:36;;;;;;;;;;;;;;;;;;5086384;28;19944;-66
2022/05/11 15:24:02;;;;;;;;;;;;;;;;;;5086210;28;20463;-65
2022/05/11 15:26:28;;;;;;;;;;;;;;;;;;5085995;28;19934;-66
2022/05/11 15:28:54;;;;;;;;;;;;;;;;;;5085960;28;19935;-65
2022/05/11 15:31:20;;;;;;;;;;;;;;;;;;5086015;28;19920;-65
2022/05/11 15:33:46;;;;;;;;;;;;;;;;;;5085667;28;20025;-65
2022/05/11 15:36:12;;;;;;;;;;;;;;;;;;5085778;28;19966;-65
2022/05/11 15:38:38;;;;;;;;;;;;;;;;;;5086020;28;19921;-66
2022/05/11 15:41:07;;;;;;;;;;;;;;;;;;5085988;28;19920;-66
2022/05/11 15:43:33;;;;;;;;;;;;;;;;;;5085815;28;19974;-66
2022/05/11 15:45:59;;;;;;;;;;;;;;;;;;5085978;28;19920;-65
2022/05/11 15:48:25;;;;;;;;;;;;;;;;;;5085717;28;19927;-65
2022/05/11 15:50:51;;;;;;;;;;;;;;;;;;5085627;28;19943;-65
2022/05/11 15:53:17;;;;;;;;;;;;;;;;;;5085587;28;19927;-65
2022/05/11 15:55:43;;;;;;;;;;;;;;;;;;5083477;28;20378;-66
2022/05/11 15:58:09;;;;;;;;;;;;;;;;;;5082778;28;19956;-66
2022/05/11 16:00:35;;;;;;;;;;;;;;;;;;5081993;28;19943;-72
2022/05/11 16:03:02;;;;;;;;;;;;;;;;;;5113936;28;19927;-64
2022/05/11 16:05:29;;;;;;;;;;;;;;;;;;5084858;28;19927;-62
2022/05/11 16:07:55;;;;;;;;;;;;;;;;;;5083957;28;19927;-66
2022/05/11 16:10:23;;;;;;;;;;;;;;;;;;5117196;28;19920;-67
2022/05/11 16:12:49;;;;;;;;;;;;;;;;;;5084286;28;19920;-66
2022/05/11 16:15:16;;;;;;;;;;;;;;;;;;5085208;28;19929;-68
2022/05/11 16:20:26;;;;;;;;;;;;;;;;;;5085043;28;19972;-67
2022/05/11 16:22:52;;;;;;;;;;;;;;;;;;5085268;28;19920;-66
2022/05/11 16:25:18;;;;;;;;;;;;;;;;;;5085406;28;19927;-68
2022/05/11 16:27:44;;;;;;;;;;;;;;;;;;5085252;28;19927;-68
2022/05/11 16:30:10;;;;;;;;;;;;;;;;;;5083070;28;20421;-68
2022/05/11 16:32:37;;;;;;;;;;;;;;;;;;5085093;28;19947;-68
2022/05/11 16:35:03;;;;;;;;;;;;;;;;;;5084859;28;20516;-67
2022/05/11 16:37:29;;;;;;;;;;;;;;;;;;5084221;28;19931;-67
2022/05/11 16:39:56;;;;;;;;;;;;;;;;;;5084879;28;19920;-68
2022/05/11 16:42:24;;;;;;;;;;;;;;;;;;5083891;28;20607;-67
2022/05/11 16:44:51;;;;;;;;;;;;;;;;;;5084267;28;19958;-67
2022/05/11 16:47:17;;;;;;;;;;;;;;;;;;5084986;28;19920;-67
2022/05/11 16:49:43;;;;;;;;;;;;;;;;;;5084330;28;19934;-67
2022/05/11 16:52:11;;;;;;;;;;;;;;;;;;5081011;28;19960;-68
2022/05/11 16:54:39;;;;;;;;;;;;;;;;;;5083596;28;19924;-67
2022/05/11 16:57:05;;;;;;;;;;;;;;;;;;5083900;28;19921;-67
2022/05/11 16:59:31;;;;;;;;;;;;;;;;;;5084023;28;19973;-67
2022/05/11 17:01:57;;;;;;;;;;;;;;;;;;5083013;28;19924;-67
2022/05/11 17:04:23;;;;;;;;;;;;;;;;;;5084509;28;20342;-68
2022/05/11 17:06:49;;;;;;;;;;;;;;;;;;5084391;28;19927;-68
2022/05/11 17:09:15;;;;;;;;;;;;;;;;;;5083491;28;19920;-68
2022/05/11 17:11:41;;;;;;;;;;;;;;;;;;5088361;28;20269;-68
2022/05/11 17:14:07;;;;;;;;;;;;;;;;;;5082991;28;19927;-67
2022/05/11 17:16:33;;;;;;;;;;;;;;;;;;5081555;28;19927;-67
2022/05/11 17:18:59;;;;;;;;;;;;;;;;;;5088854;28;19920;-68
2022/05/11 17:21:25;;;;;;;;;;;;;;;;;;5089047;28;19935;-69
2022/05/11 17:23:51;;;;;;;;;;;;;;;;;;5086552;28;19920;-68
2022/05/11 17:26:17;;;;;;;;;;;;;;;;;;5084420;28;19924;-67
2022/05/11 17:28:43;;;;;;;;;;;;;;;;;;5084659;28;20288;-66
2022/05/11 17:31:09;;;;;;;;;;;;;;;;;;5087345;28;19920;-68
2022/05/11 17:33:37;;;;;;;;;;;;;;;;;;5080267;28;19920;-67
2022/05/11 17:36:03;;;;;;;;;;;;;;;;;;5122239;28;19927;-67
2022/05/11 17:38:29;;;;;;;;;;;;;;;;;;5090268;28;19960;-68
2022/05/11 17:40:55;;;;;;;;;;;;;;;;;;5087641;28;20006;-68
2022/05/11 17:43:21;;;;;;;;;;;;;;;;;;5087706;28;20003;-68
2022/05/11 17:45:47;;;;;;;;;;;;;;;;;;5087397;28;19920;-68
2022/05/11 17:48:13;;;;;;;;;;;;;;;;;;5086203;28;19927;-68